createdAt,value
2018-09-28T00:00:58.534Z,0
2018-09-28T00:02:00.575Z,0
2018-09-28T00:03:02.599Z,0
2018-09-28T00:04:04.628Z,0
2018-09-28T00:05:06.971Z,0
2018-09-28T00:06:08.990Z,0
2018-09-28T00:07:11.024Z,0
2018-09-28T00:08:13.060Z,0
2018-09-28T00:09:15.094Z,0
2018-09-28T00:10:17.498Z,0
2018-09-28T00:11:19.532Z,0
2018-09-28T00:12:21.555Z,0
2018-09-28T00:13:23.577Z,0
2018-09-28T00:14:25.600Z,0
2018-09-28T00:15:27.640Z,0
2018-09-28T00:16:29.953Z,0
2018-09-28T00:17:31.992Z,0
2018-09-28T00:18:34.574Z,0
2018-09-28T00:19:36.610Z,0
2018-09-28T00:20:38.636Z,0
2018-09-28T00:21:40.677Z,0
2018-09-28T00:22:42.764Z,0
2018-09-28T00:23:44.784Z,0
2018-09-28T00:24:47.100Z,0
2018-09-28T00:25:49.189Z,0
2018-09-28T00:26:51.169Z,0
2018-09-28T00:27:53.195Z,0
2018-09-28T00:28:55.220Z,0
2018-09-28T00:29:57.247Z,0
2018-09-28T00:30:59.266Z,0
2018-09-28T00:32:01.303Z,0
2018-09-28T00:33:03.327Z,0
2018-09-28T00:34:05.354Z,0
2018-09-28T00:35:07.395Z,0
2018-09-28T00:36:09.417Z,0
2018-09-28T00:37:11.447Z,0
2018-09-28T00:38:14.173Z,0
2018-09-28T00:39:16.195Z,0
2018-09-28T00:40:18.228Z,0
2018-09-28T00:41:20.260Z,0
2018-09-28T00:42:22.301Z,0
2018-09-28T00:43:24.323Z,0
2018-09-28T00:44:26.636Z,0
2018-09-28T00:45:28.657Z,0
2018-09-28T00:46:30.680Z,0
2018-09-28T00:47:33.008Z,0
2018-09-28T00:48:35.033Z,0
2018-09-28T00:49:37.063Z,0
2018-09-28T00:50:39.085Z,0
2018-09-28T00:51:41.125Z,0
2018-09-28T00:52:43.150Z,0
2018-09-28T00:53:45.181Z,0
2018-09-28T00:54:47.207Z,0
2018-09-28T00:55:49.244Z,0
2018-09-28T00:56:51.259Z,0
2018-09-28T00:57:53.575Z,0
2018-09-28T00:58:55.610Z,0
2018-09-28T00:59:57.647Z,0
2018-09-28T01:00:59.672Z,0
2018-09-28T01:02:02.371Z,0
2018-09-28T01:03:04.683Z,0
2018-09-28T01:04:06.712Z,0
2018-09-28T01:05:08.748Z,0
2018-09-28T01:06:10.780Z,0
2018-09-28T01:07:13.179Z,0
2018-09-28T01:08:15.220Z,0
2018-09-28T01:09:17.629Z,0
2018-09-28T01:10:19.941Z,0
2018-09-28T01:11:21.973Z,0
2018-09-28T01:12:24.272Z,0
2018-09-28T01:13:26.306Z,0
2018-09-28T01:14:28.342Z,0
2018-09-28T01:15:30.760Z,0
2018-09-28T01:16:32.779Z,0
2018-09-28T01:17:34.814Z,0
2018-09-28T01:18:36.843Z,0
2018-09-28T01:19:38.863Z,0
2018-09-28T01:20:41.210Z,0
2018-09-28T01:21:43.240Z,0
2018-09-28T01:22:45.301Z,0
2018-09-28T01:23:47.325Z,0
2018-09-28T01:24:49.363Z,0
2018-09-28T01:25:51.390Z,0
2018-09-28T01:26:53.810Z,0
2018-09-28T01:27:55.846Z,0
2018-09-28T01:28:57.864Z,0
2018-09-28T01:30:00.182Z,0
2018-09-28T01:31:02.207Z,0
2018-09-28T01:32:04.232Z,0
2018-09-28T01:33:06.251Z,0
2018-09-28T01:34:08.286Z,0
2018-09-28T01:35:10.698Z,0
2018-09-28T01:36:12.731Z,0
2018-09-28T01:37:15.052Z,0
2018-09-28T01:38:17.356Z,0
2018-09-28T01:39:19.389Z,0
2018-09-28T01:40:21.430Z,0
2018-09-28T01:41:23.452Z,0
2018-09-28T01:42:25.486Z,0
2018-09-28T01:43:27.514Z,0
2018-09-28T01:44:29.546Z,0
2018-09-28T01:45:31.870Z,0
2018-09-28T01:46:34.181Z,0
2018-09-28T01:47:36.212Z,0
2018-09-28T01:48:38.231Z,0
2018-09-28T01:49:40.271Z,0
2018-09-28T01:50:42.293Z,0
2018-09-28T01:51:44.327Z,0
2018-09-28T01:52:46.361Z,0
2018-09-28T01:53:48.380Z,0
2018-09-28T01:54:50.418Z,0
2018-09-28T01:55:52.441Z,0
2018-09-28T01:56:54.476Z,0
2018-09-28T01:57:56.494Z,0
2018-09-28T01:58:59.199Z,0
2018-09-28T02:00:01.228Z,0
2018-09-28T02:01:03.265Z,0
2018-09-28T02:02:05.303Z,0
2018-09-28T02:03:08.005Z,0
2018-09-28T02:04:10.321Z,0
2018-09-28T02:05:12.359Z,0
2018-09-28T02:06:14.391Z,0
2018-09-28T02:07:16.700Z,0
2018-09-28T02:08:18.747Z,0
2018-09-28T02:09:20.775Z,0
2018-09-28T02:10:22.810Z,0
2018-09-28T02:11:25.103Z,0
2018-09-28T02:12:27.175Z,0
2018-09-28T02:13:29.174Z,0
2018-09-28T02:14:31.191Z,0
2018-09-28T02:15:33.228Z,0
2018-09-28T02:16:35.260Z,0
2018-09-28T02:17:37.566Z,0
2018-09-28T02:18:40.020Z,0
2018-09-28T02:19:42.028Z,0
2018-09-28T02:20:44.055Z,0
2018-09-28T02:21:46.098Z,0
2018-09-28T02:22:48.116Z,0
2018-09-28T02:23:50.139Z,0
2018-09-28T02:24:52.455Z,0
2018-09-28T02:25:54.485Z,0
2018-09-28T02:26:56.784Z,0
2018-09-28T02:27:58.824Z,0
2018-09-28T02:29:00.851Z,0
2018-09-28T02:30:03.464Z,0
2018-09-28T02:31:05.480Z,0
2018-09-28T02:32:07.517Z,0
2018-09-28T02:33:09.541Z,0
2018-09-28T02:34:11.562Z,0
2018-09-28T02:35:13.986Z,0
2018-09-28T02:36:16.007Z,0
2018-09-28T02:37:18.040Z,0
2018-09-28T02:38:20.071Z,0
2018-09-28T02:39:22.101Z,0
2018-09-28T02:40:24.132Z,0
2018-09-28T02:41:26.733Z,0
2018-09-28T02:42:28.760Z,0
2018-09-28T02:43:30.782Z,0
2018-09-28T02:44:32.821Z,0
2018-09-28T02:45:34.856Z,0
2018-09-28T02:46:36.891Z,0
2018-09-28T02:47:39.212Z,0
2018-09-28T02:48:41.248Z,0
2018-09-28T02:49:43.663Z,0
2018-09-28T02:50:46.065Z,0
2018-09-28T02:51:48.102Z,0
2018-09-28T02:52:50.126Z,0
2018-09-28T02:53:52.730Z,0
2018-09-28T02:54:54.766Z,0
2018-09-28T02:55:56.810Z,0
2018-09-28T02:56:59.234Z,0
2018-09-28T02:58:01.605Z,0
2018-09-28T02:59:03.637Z,0
2018-09-28T03:00:05.653Z,0
2018-09-28T03:01:07.692Z,0
2018-09-28T03:02:09.721Z,0
2018-09-28T03:03:11.759Z,0
2018-09-28T03:04:13.773Z,0
2018-09-28T03:05:16.090Z,0
2018-09-28T03:06:18.495Z,0
2018-09-28T03:07:20.900Z,0
2018-09-28T03:08:23.228Z,0
2018-09-28T03:09:25.242Z,0
2018-09-28T03:10:27.589Z,0
2018-09-28T03:11:30.312Z,0
2018-09-28T03:12:32.364Z,0
2018-09-28T03:13:34.383Z,0
2018-09-28T03:14:36.690Z,0
2018-09-28T03:15:38.711Z,0
2018-09-28T03:16:41.115Z,0
2018-09-28T03:17:43.462Z,0
2018-09-28T03:18:45.870Z,0
2018-09-28T03:19:48.173Z,0
2018-09-28T03:20:50.216Z,0
2018-09-28T03:21:52.238Z,0
2018-09-28T03:22:54.653Z,0
2018-09-28T03:23:56.673Z,0
2018-09-28T03:24:59.095Z,0
2018-09-28T03:26:01.602Z,0
2018-09-28T03:27:04.379Z,0
2018-09-28T03:28:07.067Z,0
2018-09-28T03:29:09.106Z,0
2018-09-28T03:30:11.515Z,0
2018-09-28T03:31:13.927Z,0
2018-09-28T03:32:16.244Z,0
2018-09-28T03:33:18.552Z,0
2018-09-28T03:34:20.971Z,0
2018-09-28T03:35:23.001Z,0
2018-09-28T03:36:25.032Z,0
2018-09-28T03:37:27.430Z,0
2018-09-28T03:38:29.463Z,0
2018-09-28T03:39:31.800Z,0
2018-09-28T03:40:34.209Z,0
2018-09-28T03:41:36.144Z,0
2018-09-28T03:42:38.449Z,0
2018-09-28T03:43:40.482Z,0
2018-09-28T03:44:42.513Z,0
2018-09-28T03:45:44.546Z,0
2018-09-28T03:46:46.567Z,0
2018-09-28T03:47:48.592Z,0
2018-09-28T03:48:50.902Z,0
2018-09-28T03:49:52.934Z,0
2018-09-28T03:50:54.974Z,0
2018-09-28T03:51:56.998Z,0
2018-09-28T03:52:59.020Z,0
2018-09-28T03:54:01.348Z,0
2018-09-28T03:55:03.674Z,0
2018-09-28T03:56:06.082Z,0
2018-09-28T03:57:08.117Z,0
2018-09-28T03:58:10.136Z,0
2018-09-28T03:59:12.872Z,0
2018-09-28T04:00:14.900Z,0
2018-09-28T04:01:16.932Z,0
2018-09-28T04:02:18.944Z,0
2018-09-28T04:03:20.981Z,0
2018-09-28T04:04:23.002Z,0
2018-09-28T04:05:25.028Z,0
2018-09-28T04:06:27.357Z,0
2018-09-28T04:07:29.656Z,0
2018-09-28T04:08:31.700Z,0
2018-09-28T04:09:34.309Z,0
2018-09-28T04:10:36.629Z,0
2018-09-28T04:11:38.650Z,0
2018-09-28T04:12:40.676Z,0
2018-09-28T04:13:42.993Z,0
2018-09-28T04:14:45.010Z,0
2018-09-28T04:15:47.047Z,0
2018-09-28T04:16:49.368Z,0
2018-09-28T04:17:51.677Z,0
2018-09-28T04:18:54.083Z,0
2018-09-28T04:19:56.114Z,0
2018-09-28T04:20:58.422Z,0
2018-09-28T04:22:00.799Z,0
2018-09-28T04:23:03.199Z,0
2018-09-28T04:24:05.518Z,0
2018-09-28T04:25:07.546Z,0
2018-09-28T04:26:09.582Z,0
2018-09-28T04:27:11.876Z,0
2018-09-28T04:28:14.682Z,0
2018-09-28T04:29:16.701Z,0
2018-09-28T04:30:18.732Z,0
2018-09-28T04:31:20.763Z,0
2018-09-28T04:32:22.779Z,0
2018-09-28T04:33:24.805Z,0
2018-09-28T04:34:27.109Z,0
2018-09-28T04:35:29.149Z,0
2018-09-28T04:36:31.455Z,4
2018-09-28T04:37:33.486Z,0
2018-09-28T04:38:35.515Z,0
2018-09-28T04:39:37.545Z,4
2018-09-28T04:40:39.844Z,4
2018-09-28T04:41:41.874Z,4
2018-09-28T04:42:43.901Z,4
2018-09-28T04:43:45.932Z,4
2018-09-28T04:44:47.962Z,8
2018-09-28T04:45:49.988Z,12
2018-09-28T04:46:52.017Z,12
2018-09-28T04:47:54.025Z,12
2018-09-28T04:48:56.341Z,16
2018-09-28T04:49:58.359Z,20
2018-09-28T04:51:00.380Z,24
2018-09-28T04:52:02.786Z,32
2018-09-28T04:53:04.815Z,36
2018-09-28T04:54:06.846Z,40
2018-09-28T04:55:08.870Z,48
2018-09-28T04:56:10.901Z,56
2018-09-28T04:57:13.193Z,64
2018-09-28T04:58:15.229Z,72
2018-09-28T04:59:17.253Z,88
2018-09-28T05:00:19.267Z,104
2018-09-28T05:01:21.294Z,116
2018-09-28T05:02:23.323Z,132
2018-09-28T05:03:25.341Z,156
2018-09-28T05:04:27.375Z,176
2018-09-28T05:05:29.790Z,200
2018-09-28T05:06:31.806Z,216
2018-09-28T05:07:34.499Z,244
2018-09-28T05:08:36.538Z,264
2018-09-28T05:09:38.554Z,284
2018-09-28T05:10:40.583Z,304
2018-09-28T05:11:43.006Z,336
2018-09-28T05:12:45.687Z,364
2018-09-28T05:13:48.105Z,396
2018-09-28T05:14:50.122Z,428
2018-09-28T05:15:52.151Z,460
2018-09-28T05:16:54.168Z,492
2018-09-28T05:17:56.195Z,524
2018-09-28T05:18:58.219Z,564
2018-09-28T05:20:00.249Z,612
2018-09-28T05:21:02.568Z,656
2018-09-28T05:22:04.601Z,704
2018-09-28T05:23:06.619Z,740
2018-09-28T05:24:09.023Z,784
2018-09-28T05:25:11.341Z,816
2018-09-28T05:26:13.714Z,840
2018-09-28T05:27:16.027Z,872
2018-09-28T05:28:18.055Z,924
2018-09-28T05:29:20.376Z,972
2018-09-28T05:30:22.390Z,1028
2018-09-28T05:31:24.536Z,1084
2018-09-28T05:32:26.621Z,1148
2018-09-28T05:33:28.976Z,1228
2018-09-28T05:34:31.006Z,1308
2018-09-28T05:35:33.029Z,1380
2018-09-28T05:36:35.051Z,1436
2018-09-28T05:37:37.084Z,1484
2018-09-28T05:38:39.102Z,1544
2018-09-28T05:39:41.122Z,1616
2018-09-28T05:40:43.142Z,1700
2018-09-28T05:41:45.177Z,1776
2018-09-28T05:42:47.630Z,1860
2018-09-28T05:43:49.630Z,1964
2018-09-28T05:44:52.046Z,2024
2018-09-28T05:45:54.065Z,2080
2018-09-28T05:46:56.385Z,2104
2018-09-28T05:47:58.408Z,2132
2018-09-28T05:49:00.723Z,2152
2018-09-28T05:50:02.738Z,2144
2018-09-28T05:51:04.766Z,2196
2018-09-28T05:52:06.792Z,2252
2018-09-28T05:53:08.813Z,2292
2018-09-28T05:54:10.848Z,2348
2018-09-28T05:55:12.868Z,2432
2018-09-28T05:56:14.883Z,2492
2018-09-28T05:57:16.901Z,2572
2018-09-28T05:58:18.922Z,2644
2018-09-28T05:59:20.974Z,2708
2018-09-28T06:00:22.999Z,2836
2018-09-28T06:01:25.028Z,2956
2018-09-28T06:02:27.062Z,3064
2018-09-28T06:03:29.364Z,3208
2018-09-28T06:04:31.399Z,3260
2018-09-28T06:05:33.508Z,3244
2018-09-28T06:06:35.443Z,3340
2018-09-28T06:07:37.860Z,3400
2018-09-28T06:08:39.889Z,3460
2018-09-28T06:09:41.908Z,3488
2018-09-28T06:10:43.948Z,3508
2018-09-28T06:11:45.966Z,3548
2018-09-28T06:12:47.986Z,3528
2018-09-28T06:13:50.008Z,3456
2018-09-28T06:14:52.046Z,3556
2018-09-28T06:15:54.351Z,3616
2018-09-28T06:16:56.676Z,3596
2018-09-28T06:17:58.717Z,3700
2018-09-28T06:19:01.232Z,3776
2018-09-28T06:20:03.571Z,3848
2018-09-28T06:21:05.599Z,3916
2018-09-28T06:22:08.960Z,3992
2018-09-28T06:23:10.976Z,4076
2018-09-28T06:24:13.077Z,4136
2018-09-28T06:25:15.030Z,4176
2018-09-28T06:26:18.020Z,4184
2018-09-28T06:27:20.630Z,4208
2018-09-28T06:28:23.033Z,4176
2018-09-28T06:29:25.065Z,4136
2018-09-28T06:30:27.479Z,4120
2018-09-28T06:31:29.509Z,4128
2018-09-28T06:32:31.527Z,4152
2018-09-28T06:33:33.550Z,4216
2018-09-28T06:34:35.572Z,4276
2018-09-28T06:35:37.936Z,4348
2018-09-28T06:36:40.271Z,4432
2018-09-28T06:37:42.295Z,4548
2018-09-28T06:38:44.597Z,4688
2018-09-28T06:39:46.631Z,4856
2018-09-28T06:40:48.649Z,5000
2018-09-28T06:41:51.099Z,5076
2018-09-28T06:42:53.099Z,5168
2018-09-28T06:43:55.798Z,5300
2018-09-28T06:44:57.830Z,5392
2018-09-28T06:45:59.863Z,5404
2018-09-28T06:47:01.896Z,5328
2018-09-28T06:48:03.972Z,5264
2018-09-28T06:49:05.948Z,5212
2018-09-28T06:50:07.959Z,5152
2018-09-28T06:51:09.999Z,5100
2018-09-28T06:52:12.014Z,5104
2018-09-28T06:53:14.030Z,5172
2018-09-28T06:54:16.089Z,5340
2018-09-28T06:55:18.081Z,5528
2018-09-28T06:56:20.117Z,5784
2018-09-28T06:57:22.142Z,6056
2018-09-28T06:58:24.165Z,6276
2018-09-28T06:59:26.195Z,6348
2018-09-28T07:00:28.208Z,6320
2018-09-28T07:01:30.241Z,6288
2018-09-28T07:02:32.260Z,6252
2018-09-28T07:03:34.283Z,6176
2018-09-28T07:04:36.307Z,6076
2018-09-28T07:05:38.384Z,5916
2018-09-28T07:06:40.362Z,5756
2018-09-28T07:07:42.395Z,5620
2018-09-28T07:08:44.425Z,5388
2018-09-28T07:09:46.824Z,4888
2018-09-28T07:10:49.239Z,4844
2018-09-28T07:11:51.321Z,4972
2018-09-28T07:12:53.305Z,5260
2018-09-28T07:13:55.632Z,5792
2018-09-28T07:14:57.661Z,5960
2018-09-28T07:15:59.973Z,6008
2018-09-28T07:17:01.991Z,6088
2018-09-28T07:18:04.048Z,6148
2018-09-28T07:19:06.058Z,6224
2018-09-28T07:20:08.124Z,6308
2018-09-28T07:21:10.102Z,6416
2018-09-28T07:22:12.413Z,6636
2018-09-28T07:23:14.434Z,7040
2018-09-28T07:24:16.518Z,7100
2018-09-28T07:25:18.495Z,7556
2018-09-28T07:26:20.895Z,8964
2018-09-28T07:27:22.930Z,18272
2018-09-28T07:28:24.949Z,19296
2018-09-28T07:29:26.981Z,31392
2018-09-28T07:30:29.001Z,35904
2018-09-28T07:31:31.027Z,31328
2018-09-28T07:32:33.060Z,26848
2018-09-28T07:33:35.076Z,24960
2018-09-28T07:34:37.397Z,26816
2018-09-28T07:35:39.714Z,29088
2018-09-28T07:36:41.901Z,31648
2018-09-28T07:37:43.747Z,30176
2018-09-28T07:38:45.776Z,31616
2018-09-28T07:39:47.802Z,35200
2018-09-28T07:40:50.120Z,39232
2018-09-28T07:41:52.227Z,42848
2018-09-28T07:42:54.956Z,39424
2018-09-28T07:43:56.986Z,38144
2018-09-28T07:44:59.019Z,40416
2018-09-28T07:46:01.325Z,39168
2018-09-28T07:47:04.023Z,38336
2018-09-28T07:48:06.339Z,41440
2018-09-28T07:49:08.431Z,42016
2018-09-28T07:50:10.382Z,42464
2018-09-28T07:51:12.414Z,45344
2018-09-28T07:52:14.447Z,47584
2018-09-28T07:53:16.476Z,49728
2018-09-28T07:54:18.496Z,34240
2018-09-28T07:55:20.528Z,53152
2018-09-28T07:56:22.553Z,51360
2018-09-28T07:57:24.578Z,47008
2018-09-28T07:58:26.617Z,47168
2018-09-28T07:59:28.632Z,47264
2018-09-28T08:00:31.054Z,50208
2018-09-28T08:01:33.080Z,54816
2018-09-28T08:02:35.686Z,40224
2018-09-28T08:03:38.020Z,40960
2018-09-28T08:04:40.052Z,56640
2018-09-28T08:05:42.088Z,54432
2018-09-28T08:06:44.110Z,27360
2018-09-28T08:07:46.144Z,21760
2018-09-28T08:08:48.175Z,33952
2018-09-28T08:09:50.197Z,17092
2018-09-28T08:10:52.223Z,18240
2018-09-28T08:11:54.256Z,15888
2018-09-28T08:12:56.289Z,12336
2018-09-28T08:13:58.324Z,10232
2018-09-28T08:15:00.360Z,27744
2018-09-28T08:16:02.688Z,18848
2018-09-28T08:17:04.721Z,27712
2018-09-28T08:18:06.764Z,15976
2018-09-28T08:19:08.782Z,20192
2018-09-28T08:20:10.820Z,18016
2018-09-28T08:21:13.238Z,33056
2018-09-28T08:22:15.551Z,20320
2018-09-28T08:23:17.921Z,67488
2018-09-28T08:24:20.232Z,19712
2018-09-28T08:25:22.639Z,17572
2018-09-28T08:26:24.662Z,58624
2018-09-28T08:27:26.687Z,19584
2018-09-28T08:28:28.721Z,19168
2018-09-28T08:29:31.321Z,63840
2018-09-28T08:30:33.369Z,23936
2018-09-28T08:31:35.729Z,18784
2018-09-28T08:32:37.749Z,18720
2018-09-28T08:33:39.784Z,17032
2018-09-28T08:34:41.809Z,19136
2018-09-28T08:35:43.850Z,47616
2018-09-28T08:36:46.202Z,17664
2018-09-28T08:37:48.969Z,41472
2018-09-28T08:38:51.002Z,74272
2018-09-28T08:39:53.032Z,55616
2018-09-28T08:40:55.354Z,30464
2018-09-28T08:41:57.459Z,37984
2018-09-28T08:42:59.408Z,19072
2018-09-28T08:44:01.721Z,32960
2018-09-28T08:45:03.767Z,35776
2018-09-28T08:46:05.805Z,59936
2018-09-28T08:47:08.126Z,37408
2018-09-28T08:48:10.440Z,77984
2018-09-28T08:49:12.482Z,22400
2018-09-28T08:50:14.861Z,66144
2018-09-28T08:51:16.900Z,69408
2018-09-28T08:52:18.928Z,30752
2018-09-28T08:53:21.248Z,37728
2018-09-28T08:54:23.280Z,42432
2018-09-28T08:55:25.309Z,50016
2018-09-28T08:56:27.345Z,54944
2018-09-28T08:57:29.372Z,29984
2018-09-28T08:58:31.693Z,62816
2018-09-28T08:59:34.027Z,26944
2018-09-28T09:00:36.351Z,56352
2018-09-28T09:01:38.955Z,24128
2018-09-28T09:02:41.009Z,27200
2018-09-28T09:03:43.331Z,27104
2018-09-28T09:04:45.355Z,83040
2018-09-28T09:05:47.398Z,79040
2018-09-28T09:06:49.428Z,77568
2018-09-28T09:07:51.850Z,25440
2018-09-28T09:08:54.165Z,23008
2018-09-28T09:09:56.205Z,77056
2018-09-28T09:10:58.243Z,79904
2018-09-28T09:12:00.266Z,75008
2018-09-28T09:13:02.898Z,18880
2018-09-28T09:14:05.878Z,56032
2018-09-28T09:15:08.200Z,77536
2018-09-28T09:16:10.238Z,80384
2018-09-28T09:17:12.584Z,80672
2018-09-28T09:18:14.641Z,75072
2018-09-28T09:19:16.966Z,74240
2018-09-28T09:20:18.988Z,74976
2018-09-28T09:21:21.014Z,64384
2018-09-28T09:22:23.058Z,75232
2018-09-28T09:23:25.090Z,35552
2018-09-28T09:24:27.117Z,81216
2018-09-28T09:25:29.163Z,67712
2018-09-28T09:26:31.196Z,53440
2018-09-28T09:27:33.516Z,68256
2018-09-28T09:28:35.941Z,21120
2018-09-28T09:29:37.961Z,77952
2018-09-28T09:30:40.003Z,44608
2018-09-28T09:31:42.326Z,19168
2018-09-28T09:32:44.370Z,25344
2018-09-28T09:33:46.394Z,23744
2018-09-28T09:34:48.434Z,83296
2018-09-28T09:35:50.462Z,29664
2018-09-28T09:36:52.491Z,24000
2018-09-28T09:37:54.542Z,38208
2018-09-28T09:38:56.565Z,21792
2018-09-28T09:39:58.892Z,23840
2018-09-28T09:41:00.918Z,59200
2018-09-28T09:42:02.962Z,72960
2018-09-28T09:43:04.993Z,66176
2018-09-28T09:44:07.028Z,72224
2018-09-28T09:45:09.346Z,65504
2018-09-28T09:46:11.399Z,66976
2018-09-28T09:47:13.422Z,73248
2018-09-28T09:48:15.464Z,75712
2018-09-28T09:49:17.503Z,22944
2018-09-28T09:50:19.853Z,79392
2018-09-28T09:51:21.877Z,39584
2018-09-28T09:52:23.915Z,41760
2018-09-28T09:53:25.943Z,42272
2018-09-28T09:54:27.974Z,20416
2018-09-28T09:55:30.024Z,18336
2018-09-28T09:56:32.347Z,19392
2018-09-28T09:57:34.384Z,21600
2018-09-28T09:58:36.434Z,83200
2018-09-28T09:59:38.465Z,49952
2018-09-28T10:00:40.786Z,20608
2018-09-28T10:01:43.120Z,22304
2018-09-28T10:02:45.148Z,83936
2018-09-28T10:03:47.189Z,87424
2018-09-28T10:04:49.616Z,96768
2018-09-28T10:05:52.039Z,66368
2018-09-28T10:06:54.061Z,74080
2018-09-28T10:07:56.104Z,79488
2018-09-28T10:08:58.139Z,90848
2018-09-28T10:10:00.166Z,72512
2018-09-28T10:11:02.212Z,90272
2018-09-28T10:12:04.236Z,94880
2018-09-28T10:13:06.556Z,46560
2018-09-28T10:14:08.587Z,50304
2018-09-28T10:15:10.920Z,48736
2018-09-28T10:16:12.950Z,42848
2018-09-28T10:17:14.986Z,44640
2018-09-28T10:18:17.707Z,70112
2018-09-28T10:19:19.806Z,61568
2018-09-28T10:20:22.234Z,80160
2018-09-28T10:21:24.659Z,80320
2018-09-28T10:22:26.701Z,78176
2018-09-28T10:23:28.739Z,29120
2018-09-28T10:24:30.769Z,22464
2018-09-28T10:25:33.468Z,16124
2018-09-28T10:26:35.790Z,15076
2018-09-28T10:27:38.136Z,14356
2018-09-28T10:28:40.633Z,15840
2018-09-28T10:29:43.001Z,17820
2018-09-28T10:30:45.030Z,50304
2018-09-28T10:31:47.077Z,27648
2018-09-28T10:32:49.107Z,49728
2018-09-28T10:33:51.142Z,74848
2018-09-28T10:34:53.185Z,72672
2018-09-28T10:35:55.210Z,73472
2018-09-28T10:36:57.249Z,18208
2018-09-28T10:37:59.290Z,14296
2018-09-28T10:39:01.326Z,12940
2018-09-28T10:40:03.639Z,12992
2018-09-28T10:41:05.694Z,12980
2018-09-28T10:42:08.068Z,13664
2018-09-28T10:43:10.377Z,16508
2018-09-28T10:44:12.421Z,95936
2018-09-28T10:45:14.868Z,92064
2018-09-28T10:46:16.872Z,91616
2018-09-28T10:47:18.900Z,91968
2018-09-28T10:48:20.944Z,90816
2018-09-28T10:49:23.016Z,92416
2018-09-28T10:50:25.004Z,59520
2018-09-28T10:51:27.438Z,25472
2018-09-28T10:52:30.023Z,72576
2018-09-28T10:53:31.926Z,33856
2018-09-28T10:54:33.956Z,66848
2018-09-28T10:55:36.273Z,110112
2018-09-28T10:56:38.306Z,26816
2018-09-28T10:57:40.940Z,30752
2018-09-28T10:58:43.426Z,19424
2018-09-28T10:59:45.386Z,17328
2018-09-28T11:00:47.416Z,17260
2018-09-28T11:01:49.460Z,18240
2018-09-28T11:02:51.492Z,21056
2018-09-28T11:03:53.522Z,19616
2018-09-28T11:04:55.570Z,17832
2018-09-28T11:05:57.597Z,17176
2018-09-28T11:06:59.631Z,16244
2018-09-28T11:08:01.672Z,31200
2018-09-28T11:09:03.993Z,33504
2018-09-28T11:10:06.051Z,75520
2018-09-28T11:11:08.066Z,86368
2018-09-28T11:12:10.491Z,82784
2018-09-28T11:13:12.799Z,69408
2018-09-28T11:14:14.835Z,89184
2018-09-28T11:15:16.933Z,91040
2018-09-28T11:16:19.264Z,82560
2018-09-28T11:17:21.306Z,81888
2018-09-28T11:18:23.330Z,82528
2018-09-28T11:19:25.373Z,88544
2018-09-28T11:20:27.403Z,88992
2018-09-28T11:21:29.449Z,79680
2018-09-28T11:22:31.482Z,90624
2018-09-28T11:23:33.518Z,105664
2018-09-28T11:24:35.559Z,107776
2018-09-28T11:25:37.583Z,81376
2018-09-28T11:26:40.018Z,33568
2018-09-28T11:27:42.141Z,69312
2018-09-28T11:28:44.469Z,51872
2018-09-28T11:29:46.888Z,31776
2018-09-28T11:30:48.929Z,23712
2018-09-28T11:31:50.965Z,19872
2018-09-28T11:32:53.292Z,17112
2018-09-28T11:33:55.335Z,19200
2018-09-28T11:34:57.363Z,25280
2018-09-28T11:35:59.465Z,25344
2018-09-28T11:37:01.792Z,32800
2018-09-28T11:38:03.815Z,21472
2018-09-28T11:39:05.859Z,21216
2018-09-28T11:40:08.291Z,16696
2018-09-28T11:41:10.324Z,16800
2018-09-28T11:42:12.370Z,18816
2018-09-28T11:43:14.469Z,59680
2018-09-28T11:44:16.879Z,85920
2018-09-28T11:45:18.942Z,88416
2018-09-28T11:46:21.322Z,69120
2018-09-28T11:47:23.352Z,62400
2018-09-28T11:48:25.397Z,22912
2018-09-28T11:49:27.461Z,17240
2018-09-28T11:50:29.769Z,17600
2018-09-28T11:51:32.163Z,18496
2018-09-28T11:52:34.553Z,18592
2018-09-28T11:53:36.552Z,19392
2018-09-28T11:54:38.580Z,21440
2018-09-28T11:55:40.921Z,78560
2018-09-28T11:56:42.946Z,57664
2018-09-28T11:57:45.493Z,89760
2018-09-28T11:58:47.833Z,69088
2018-09-28T11:59:49.910Z,77216
2018-09-28T12:00:51.948Z,96896
2018-09-28T12:01:54.272Z,104800
2018-09-28T12:02:56.315Z,69472
2018-09-28T12:03:58.633Z,81408
2018-09-28T12:05:00.704Z,78432
2018-09-28T12:06:03.417Z,71776
2018-09-28T12:07:05.534Z,54304
2018-09-28T12:08:08.692Z,43264
2018-09-28T12:09:11.015Z,43840
2018-09-28T12:10:13.042Z,31168
2018-09-28T12:11:15.404Z,45600
2018-09-28T12:12:17.770Z,20800
2018-09-28T12:13:19.792Z,21280
2018-09-28T12:14:21.781Z,23488
2018-09-28T12:15:23.909Z,41536
2018-09-28T12:16:26.259Z,39904
2018-09-28T12:17:28.291Z,48320
2018-09-28T12:18:30.337Z,73568
2018-09-28T12:19:32.367Z,70656
2018-09-28T12:20:34.393Z,49696
2018-09-28T12:21:36.849Z,78016
2018-09-28T12:22:38.866Z,91680
2018-09-28T12:23:40.897Z,59936
2018-09-28T12:24:43.270Z,23392
2018-09-28T12:25:45.733Z,74016
2018-09-28T12:26:48.817Z,76928
2018-09-28T12:27:51.580Z,19584
2018-09-28T12:28:53.609Z,37056
2018-09-28T12:29:55.644Z,65856
2018-09-28T12:30:57.676Z,20576
2018-09-28T12:32:00.398Z,20416
2018-09-28T12:33:02.426Z,48224
2018-09-28T12:34:04.465Z,40960
2018-09-28T12:35:07.115Z,27808
2018-09-28T12:36:09.167Z,14432
2018-09-28T12:37:11.182Z,18560
2018-09-28T12:38:13.506Z,20032
2018-09-28T12:39:16.064Z,35904
2018-09-28T12:40:17.952Z,15952
2018-09-28T12:41:19.997Z,89504
2018-09-28T12:42:22.427Z,30112
2018-09-28T12:43:24.936Z,25344
2018-09-28T12:44:27.066Z,21024
2018-09-28T12:45:29.648Z,25632
2018-09-28T12:46:32.062Z,20704
2018-09-28T12:47:34.490Z,27008
2018-09-28T12:48:36.521Z,16348
2018-09-28T12:49:38.554Z,15136
2018-09-28T12:50:40.624Z,13136
2018-09-28T12:51:42.645Z,38976
2018-09-28T12:52:44.690Z,10112
2018-09-28T12:53:47.402Z,11556
2018-09-28T12:54:49.336Z,15168
2018-09-28T12:55:51.369Z,13644
2018-09-28T12:56:53.395Z,14168
2018-09-28T12:57:55.720Z,11152
2018-09-28T12:58:57.750Z,25152
2018-09-28T12:59:59.791Z,10752
2018-09-28T13:01:01.973Z,11432
2018-09-28T13:02:04.469Z,25792
2018-09-28T13:03:06.889Z,19872
2018-09-28T13:04:08.920Z,14680
2018-09-28T13:05:10.962Z,14564
2018-09-28T13:06:13.403Z,15800
2018-09-28T13:07:15.410Z,11832
2018-09-28T13:08:17.504Z,12096
2018-09-28T13:09:19.490Z,45088
2018-09-28T13:10:21.522Z,11052
2018-09-28T13:11:23.556Z,22208
2018-09-28T13:12:25.664Z,11128
2018-09-28T13:13:27.614Z,15228
2018-09-28T13:14:29.767Z,10924
2018-09-28T13:15:31.687Z,9628
2018-09-28T13:16:33.716Z,10608
2018-09-28T13:17:35.765Z,9892
2018-09-28T13:18:38.127Z,8540
2018-09-28T13:19:40.491Z,9116
2018-09-28T13:20:42.889Z,26080
2018-09-28T13:21:45.387Z,58336
2018-09-28T13:22:47.375Z,23840
2018-09-28T13:23:49.422Z,7832
2018-09-28T13:24:51.563Z,12632
2018-09-28T13:25:53.480Z,12044
2018-09-28T13:26:55.906Z,10448
2018-09-28T13:27:57.933Z,11204
2018-09-28T13:28:59.990Z,9936
2018-09-28T13:30:01.992Z,16532
2018-09-28T13:31:04.038Z,12872
2018-09-28T13:32:06.085Z,12480
2018-09-28T13:33:08.107Z,14888
2018-09-28T13:34:10.131Z,21760
2018-09-28T13:35:12.170Z,10172
2018-09-28T13:36:14.245Z,15732
2018-09-28T13:37:16.235Z,17240
2018-09-28T13:38:18.416Z,27456
2018-09-28T13:39:20.304Z,15936
2018-09-28T13:40:23.007Z,8948
2018-09-28T13:41:25.045Z,9380
2018-09-28T13:42:27.417Z,9836
2018-09-28T13:43:29.772Z,11176
2018-09-28T13:44:31.844Z,15472
2018-09-28T13:45:34.346Z,13520
2018-09-28T13:46:36.875Z,11296
2018-09-28T13:47:39.204Z,10200
2018-09-28T13:48:41.546Z,22080
2018-09-28T13:49:43.550Z,6812
2018-09-28T13:50:45.709Z,7348
2018-09-28T13:51:47.630Z,12788
2018-09-28T13:52:49.745Z,7936
2018-09-28T13:53:52.240Z,13476
2018-09-28T13:54:54.541Z,7076
2018-09-28T13:55:56.885Z,8788
2018-09-28T13:56:58.923Z,7748
2018-09-28T13:58:00.961Z,11016
2018-09-28T13:59:03.068Z,8456
2018-09-28T14:00:05.108Z,14572
2018-09-28T14:01:07.142Z,8052
2018-09-28T14:02:09.189Z,18528
2018-09-28T14:03:12.032Z,12032
2018-09-28T14:04:14.356Z,10796
2018-09-28T14:05:16.385Z,9124